sensor_id;sensor_type;location;lat;lon;timestamp;temperature;humidity
42159;DHT22;27822;44.430;10.790;2022-08-01T00:00:14;25.30;61.60
42159;DHT22;27822;44.430;10.790;2022-08-01T00:02:40;25.30;61.50
42159;DHT22;27822;44.430;10.790;2022-08-01T00:05:07;25.30;61.30
42159;DHT22;27822;44.430;10.790;2022-08-01T00:07:36;25.30;61.40
42159;DHT22;27822;44.430;10.790;2022-08-01T00:10:08;25.30;61.30
42159;DHT22;27822;44.430;10.790;2022-08-01T00:12:34;25.30;61.50
42159;DHT22;27822;44.430;10.790;2022-08-01T00:15:00;25.30;61.40
42159;DHT22;27822;44.430;10.790;2022-08-01T00:17:26;25.30;61.50
42159;DHT22;27822;44.430;10.790;2022-08-01T00:19:52;25.30;61.70
42159;DHT22;27822;44.430;10.790;2022-08-01T00:22:17;25.30;61.80
42159;DHT22;27822;44.430;10.790;2022-08-01T00:24:43;25.30;62.00
42159;DHT22;27822;44.430;10.790;2022-08-01T00:27:09;25.20;62.00
42159;DHT22;27822;44.430;10.790;2022-08-01T00:29:35;25.20;62.00
42159;DHT22;27822;44.430;10.790;2022-08-01T00:32:00;25.20;62.20
42159;DHT22;27822;44.430;10.790;2022-08-01T00:34:26;25.20;62.30
42159;DHT22;27822;44.430;10.790;2022-08-01T00:36:52;25.20;62.50
42159;DHT22;27822;44.430;10.790;2022-08-01T00:39:17;25.20;62.60
42159;DHT22;27822;44.430;10.790;2022-08-01T00:41:43;25.20;62.70
42159;DHT22;27822;44.430;10.790;2022-08-01T00:44:09;25.10;62.80
42159;DHT22;27822;44.430;10.790;2022-08-01T00:46:35;25.10;62.90
42159;DHT22;27822;44.430;10.790;2022-08-01T00:49:02;25.10;62.90
42159;DHT22;27822;44.430;10.790;2022-08-01T00:51:28;25.10;62.90
42159;DHT22;27822;44.430;10.790;2022-08-01T00:53:54;25.10;62.80
42159;DHT22;27822;44.430;10.790;2022-08-01T00:56:25;25.10;62.60
42159;DHT22;27822;44.430;10.790;2022-08-01T00:58:51;25.10;62.20
42159;DHT22;27822;44.430;10.790;2022-08-01T01:01:18;25.10;62.10
42159;DHT22;27822;44.430;10.790;2022-08-01T01:03:46;25.10;62.10
42159;DHT22;27822;44.430;10.790;2022-08-01T01:09:11;25.10;62.10
42159;DHT22;27822;44.430;10.790;2022-08-01T01:14:48;25.00;61.70
42159;DHT22;27822;44.430;10.790;2022-08-01T01:17:26;25.00;61.80
42159;DHT22;27822;44.430;10.790;2022-08-01T01:19:54;25.00;61.90
42159;DHT22;27822;44.430;10.790;2022-08-01T01:22:35;25.10;62.00
42159;DHT22;27822;44.430;10.790;2022-08-01T01:25:09;25.00;61.90
42159;DHT22;27822;44.430;10.790;2022-08-01T01:28:06;25.00;61.80
42159;DHT22;27822;44.430;10.790;2022-08-01T01:30:36;25.00;61.90
42159;DHT22;27822;44.430;10.790;2022-08-01T01:33:06;25.00;61.90
42159;DHT22;27822;44.430;10.790;2022-08-01T01:35:35;25.00;61.90
42159;DHT22;27822;44.430;10.790;2022-08-01T01:38:15;25.00;62.10
42159;DHT22;27822;44.430;10.790;2022-08-01T01:40:44;25.00;62.20
42159;DHT22;27822;44.430;10.790;2022-08-01T01:43:11;25.00;62.80
42159;DHT22;27822;44.430;10.790;2022-08-01T01:45:39;25.00;62.30
42159;DHT22;27822;44.430;10.790;2022-08-01T01:48:07;25.00;62.30
42159;DHT22;27822;44.430;10.790;2022-08-01T01:50:35;25.00;62.10
42159;DHT22;27822;44.430;10.790;2022-08-01T01:53:04;25.00;62.00
42159;DHT22;27822;44.430;10.790;2022-08-01T01:55:30;25.00;62.00
42159;DHT22;27822;44.430;10.790;2022-08-01T01:57:57;25.00;62.60
42159;DHT22;27822;44.430;10.790;2022-08-01T02:00:24;25.00;62.00
42159;DHT22;27822;44.430;10.790;2022-08-01T02:02:51;25.00;62.00
42159;DHT22;27822;44.430;10.790;2022-08-01T02:05:18;25.00;62.00
42159;DHT22;27822;44.430;10.790;2022-08-01T02:07:45;25.00;62.20
42159;DHT22;27822;44.430;10.790;2022-08-01T02:10:12;24.90;62.10
42159;DHT22;27822;44.430;10.790;2022-08-01T02:12:41;25.00;62.30
42159;DHT22;27822;44.430;10.790;2022-08-01T02:15:11;24.90;62.20
42159;DHT22;27822;44.430;10.790;2022-08-01T02:17:48;24.90;62.20
42159;DHT22;27822;44.430;10.790;2022-08-01T02:20:15;24.90;62.40
42159;DHT22;27822;44.430;10.790;2022-08-01T02:22:50;24.90;62.70
42159;DHT22;27822;44.430;10.790;2022-08-01T02:28:22;24.90;62.70
42159;DHT22;27822;44.430;10.790;2022-08-01T02:30:47;24.90;62.70
42159;DHT22;27822;44.430;10.790;2022-08-01T02:33:39;24.90;62.80
42159;DHT22;27822;44.430;10.790;2022-08-01T02:36:07;24.90;62.90
42159;DHT22;27822;44.430;10.790;2022-08-01T02:38:41;24.80;62.90
42159;DHT22;27822;44.430;10.790;2022-08-01T02:41:11;24.90;62.90
42159;DHT22;27822;44.430;10.790;2022-08-01T02:43:42;24.80;62.90
42159;DHT22;27822;44.430;10.790;2022-08-01T02:46:12;24.90;62.80
42159;DHT22;27822;44.430;10.790;2022-08-01T02:48:42;24.90;62.80
42159;DHT22;27822;44.430;10.790;2022-08-01T02:51:10;24.90;63.40
42159;DHT22;27822;44.430;10.790;2022-08-01T02:53:38;24.80;62.70
42159;DHT22;27822;44.430;10.790;2022-08-01T02:56:05;24.80;62.80
42159;DHT22;27822;44.430;10.790;2022-08-01T02:58:33;24.80;62.70
42159;DHT22;27822;44.430;10.790;2022-08-01T03:00:59;24.90;62.80
42159;DHT22;27822;44.430;10.790;2022-08-01T03:03:26;24.80;62.70
42159;DHT22;27822;44.430;10.790;2022-08-01T03:05:53;24.90;62.90
42159;DHT22;27822;44.430;10.790;2022-08-01T03:08:20;24.90;63.00
42159;DHT22;27822;44.430;10.790;2022-08-01T03:10:47;24.80;62.90
42159;DHT22;27822;44.430;10.790;2022-08-01T03:13:14;24.80;63.10
42159;DHT22;27822;44.430;10.790;2022-08-01T03:15:42;24.80;63.00
42159;DHT22;27822;44.430;10.790;2022-08-01T03:18:09;24.80;63.00
42159;DHT22;27822;44.430;10.790;2022-08-01T03:20:37;24.80;63.10
42159;DHT22;27822;44.430;10.790;2022-08-01T03:23:06;24.80;63.20
42159;DHT22;27822;44.430;10.790;2022-08-01T03:25:34;24.80;63.20
42159;DHT22;27822;44.430;10.790;2022-08-01T03:28:03;24.70;63.10
42159;DHT22;27822;44.430;10.790;2022-08-01T03:30:29;24.70;63.20
42159;DHT22;27822;44.430;10.790;2022-08-01T03:32:56;24.70;63.30
42159;DHT22;27822;44.430;10.790;2022-08-01T03:35:33;24.70;63.30
42159;DHT22;27822;44.430;10.790;2022-08-01T03:38:01;24.70;63.30
42159;DHT22;27822;44.430;10.790;2022-08-01T03:40:37;24.70;63.60
42159;DHT22;27822;44.430;10.790;2022-08-01T03:43:19;24.70;63.60
42159;DHT22;27822;44.430;10.790;2022-08-01T03:45:51;24.70;63.60
42159;DHT22;27822;44.430;10.790;2022-08-01T03:48:19;24.60;63.40
42159;DHT22;27822;44.430;10.790;2022-08-01T03:50:50;24.60;63.20
42159;DHT22;27822;44.430;10.790;2022-08-01T03:53:22;24.60;63.20
42159;DHT22;27822;44.430;10.790;2022-08-01T03:55:49;24.60;63.20
42159;DHT22;27822;44.430;10.790;2022-08-01T03:58:16;24.60;63.20
42159;DHT22;27822;44.430;10.790;2022-08-01T04:00:42;24.60;63.30
42159;DHT22;27822;44.430;10.790;2022-08-01T04:03:09;24.70;63.30
42159;DHT22;27822;44.430;10.790;2022-08-01T04:05:35;24.60;63.80
42159;DHT22;27822;44.430;10.790;2022-08-01T04:08:02;24.70;63.10
42159;DHT22;27822;44.430;10.790;2022-08-01T04:10:28;24.70;62.90
42159;DHT22;27822;44.430;10.790;2022-08-01T04:12:55;24.70;62.80
42159;DHT22;27822;44.430;10.790;2022-08-01T04:15:21;24.80;62.70
42159;DHT22;27822;44.430;10.790;2022-08-01T04:17:47;24.80;62.70
42159;DHT22;27822;44.430;10.790;2022-08-01T04:20:13;24.90;62.90
42159;DHT22;27822;44.430;10.790;2022-08-01T04:22:41;24.90;62.80
42159;DHT22;27822;44.430;10.790;2022-08-01T04:25:12;25.00;62.70
42159;DHT22;27822;44.430;10.790;2022-08-01T04:27:42;25.10;62.60
42159;DHT22;27822;44.430;10.790;2022-08-01T04:30:09;25.10;62.60
42159;DHT22;27822;44.430;10.790;2022-08-01T04:32:37;25.20;63.50
42159;DHT22;27822;44.430;10.790;2022-08-01T04:35:07;25.30;62.70
42159;DHT22;27822;44.430;10.790;2022-08-01T04:37:34;25.40;62.40
42159;DHT22;27822;44.430;10.790;2022-08-01T04:40:04;25.60;62.20
42159;DHT22;27822;44.430;10.790;2022-08-01T04:42:34;25.70;62.10
42159;DHT22;27822;44.430;10.790;2022-08-01T04:45:01;26.00;62.40
42159;DHT22;27822;44.430;10.790;2022-08-01T04:47:27;26.40;62.10
42159;DHT22;27822;44.430;10.790;2022-08-01T04:49:55;27.00;61.30
42159;DHT22;27822;44.430;10.790;2022-08-01T04:52:22;27.90;60.60
42159;DHT22;27822;44.430;10.790;2022-08-01T04:54:48;30.10;58.40
42159;DHT22;27822;44.430;10.790;2022-08-01T04:57:14;32.80;55.00
42159;DHT22;27822;44.430;10.790;2022-08-01T04:59:42;35.40;51.60
42159;DHT22;27822;44.430;10.790;2022-08-01T05:02:17;37.60;49.40
42159;DHT22;27822;44.430;10.790;2022-08-01T05:04:45;39.40;47.40
42159;DHT22;27822;44.430;10.790;2022-08-01T05:07:11;41.00;45.90
42159;DHT22;27822;44.430;10.790;2022-08-01T05:09:39;42.40;44.10
42159;DHT22;27822;44.430;10.790;2022-08-01T05:12:14;43.50;42.90
42159;DHT22;27822;44.430;10.790;2022-08-01T05:14:41;44.50;41.50
42159;DHT22;27822;44.430;10.790;2022-08-01T05:17:08;45.40;41.20
42159;DHT22;27822;44.430;10.790;2022-08-01T05:19:36;46.20;40.30
42159;DHT22;27822;44.430;10.790;2022-08-01T05:22:03;47.00;39.40
42159;DHT22;27822;44.430;10.790;2022-08-01T05:24:35;47.60;38.60
42159;DHT22;27822;44.430;10.790;2022-08-01T05:27:01;48.20;37.60
42159;DHT22;27822;44.430;10.790;2022-08-01T05:29:27;48.80;37.10
42159;DHT22;27822;44.430;10.790;2022-08-01T05:31:53;49.10;36.30
42159;DHT22;27822;44.430;10.790;2022-08-01T05:34:20;49.50;36.30
42159;DHT22;27822;44.430;10.790;2022-08-01T05:36:46;49.90;36.00
42159;DHT22;27822;44.430;10.790;2022-08-01T05:39:13;50.10;35.00
42159;DHT22;27822;44.430;10.790;2022-08-01T05:41:39;50.20;34.60
42159;DHT22;27822;44.430;10.790;2022-08-01T05:44:06;49.70;34.60
42159;DHT22;27822;44.430;10.790;2022-08-01T05:46:32;47.80;35.10
42159;DHT22;27822;44.430;10.790;2022-08-01T05:48:59;45.50;36.00
42159;DHT22;27822;44.430;10.790;2022-08-01T05:51:25;43.40;37.30
42159;DHT22;27822;44.430;10.790;2022-08-01T05:53:52;41.30;38.60
42159;DHT22;27822;44.430;10.790;2022-08-01T05:56:18;39.50;40.00
42159;DHT22;27822;44.430;10.790;2022-08-01T05:58:44;37.80;41.50
42159;DHT22;27822;44.430;10.790;2022-08-01T06:01:10;36.40;42.80
42159;DHT22;27822;44.430;10.790;2022-08-01T06:03:36;35.10;44.10
42159;DHT22;27822;44.430;10.790;2022-08-01T06:06:02;34.10;45.60
42159;DHT22;27822;44.430;10.790;2022-08-01T06:08:28;33.40;47.10
42159;DHT22;27822;44.430;10.790;2022-08-01T06:10:54;32.80;47.50
42159;DHT22;27822;44.430;10.790;2022-08-01T06:13:20;32.20;48.30
42159;DHT22;27822;44.430;10.790;2022-08-01T06:15:46;31.80;48.80
42159;DHT22;27822;44.430;10.790;2022-08-01T06:18:12;31.50;50.20
42159;DHT22;27822;44.430;10.790;2022-08-01T06:20:38;31.20;51.70
42159;DHT22;27822;44.430;10.790;2022-08-01T06:23:04;30.90;52.00
42159;DHT22;27822;44.430;10.790;2022-08-01T06:25:30;30.90;52.40
42159;DHT22;27822;44.430;10.790;2022-08-01T06:27:56;30.80;51.80
42159;DHT22;27822;44.430;10.790;2022-08-01T06:30:21;30.70;52.00
42159;DHT22;27822;44.430;10.790;2022-08-01T06:32:47;30.50;53.10
42159;DHT22;27822;44.430;10.790;2022-08-01T06:35:14;30.50;53.40
42159;DHT22;27822;44.430;10.790;2022-08-01T06:37:40;30.60;53.20
42159;DHT22;27822;44.430;10.790;2022-08-01T06:40:09;30.40;52.90
42159;DHT22;27822;44.430;10.790;2022-08-01T06:42:35;30.30;53.40
42159;DHT22;27822;44.430;10.790;2022-08-01T06:45:06;30.10;53.40
42159;DHT22;27822;44.430;10.790;2022-08-01T06:47:32;30.00;53.90
42159;DHT22;27822;44.430;10.790;2022-08-01T06:49:58;30.00;53.40
42159;DHT22;27822;44.430;10.790;2022-08-01T06:52:23;30.00;53.30
42159;DHT22;27822;44.430;10.790;2022-08-01T06:54:49;30.00;53.40
42159;DHT22;27822;44.430;10.790;2022-08-01T06:57:15;30.10;53.10
42159;DHT22;27822;44.430;10.790;2022-08-01T06:59:47;30.10;53.20
42159;DHT22;27822;44.430;10.790;2022-08-01T07:02:14;30.20;54.40
42159;DHT22;27822;44.430;10.790;2022-08-01T07:04:40;30.20;53.00
42159;DHT22;27822;44.430;10.790;2022-08-01T07:07:06;30.10;53.60
42159;DHT22;27822;44.430;10.790;2022-08-01T07:09:32;30.00;54.10
42159;DHT22;27822;44.430;10.790;2022-08-01T07:11:58;30.10;53.60
42159;DHT22;27822;44.430;10.790;2022-08-01T07:14:24;30.20;54.00
42159;DHT22;27822;44.430;10.790;2022-08-01T07:16:50;30.20;54.10
42159;DHT22;27822;44.430;10.790;2022-08-01T07:19:17;30.20;54.30
42159;DHT22;27822;44.430;10.790;2022-08-01T07:21:43;30.10;54.60
42159;DHT22;27822;44.430;10.790;2022-08-01T07:24:13;30.00;55.00
42159;DHT22;27822;44.430;10.790;2022-08-01T07:26:45;30.00;54.30
42159;DHT22;27822;44.430;10.790;2022-08-01T07:29:11;29.90;55.20
42159;DHT22;27822;44.430;10.790;2022-08-01T07:31:38;30.00;55.60
42159;DHT22;27822;44.430;10.790;2022-08-01T07:34:04;29.90;55.40
42159;DHT22;27822;44.430;10.790;2022-08-01T07:36:30;29.90;55.70
42159;DHT22;27822;44.430;10.790;2022-08-01T07:38:56;30.00;56.60
42159;DHT22;27822;44.430;10.790;2022-08-01T07:41:22;30.00;56.60
42159;DHT22;27822;44.430;10.790;2022-08-01T07:43:48;30.00;54.90
42159;DHT22;27822;44.430;10.790;2022-08-01T07:46:15;30.00;55.80
42159;DHT22;27822;44.430;10.790;2022-08-01T07:48:42;30.10;56.10
42159;DHT22;27822;44.430;10.790;2022-08-01T07:51:08;30.10;55.90
42159;DHT22;27822;44.430;10.790;2022-08-01T07:53:36;30.10;55.80
42159;DHT22;27822;44.430;10.790;2022-08-01T07:56:03;30.10;55.80
42159;DHT22;27822;44.430;10.790;2022-08-01T07:58:31;30.10;55.70
42159;DHT22;27822;44.430;10.790;2022-08-01T08:00:58;30.00;55.70
42159;DHT22;27822;44.430;10.790;2022-08-01T08:03:23;30.00;56.20
42159;DHT22;27822;44.430;10.790;2022-08-01T08:05:50;30.00;57.50
42159;DHT22;27822;44.430;10.790;2022-08-01T08:08:16;30.00;55.60
42159;DHT22;27822;44.430;10.790;2022-08-01T08:10:44;30.10;55.90
42159;DHT22;27822;44.430;10.790;2022-08-01T08:13:10;30.20;56.10
42159;DHT22;27822;44.430;10.790;2022-08-01T08:15:36;30.10;56.10
42159;DHT22;27822;44.430;10.790;2022-08-01T08:18:05;30.10;56.80
42159;DHT22;27822;44.430;10.790;2022-08-01T08:20:31;30.20;56.00
42159;DHT22;27822;44.430;10.790;2022-08-01T08:22:57;30.10;56.00
42159;DHT22;27822;44.430;10.790;2022-08-01T08:25:25;30.10;56.10
42159;DHT22;27822;44.430;10.790;2022-08-01T08:27:51;29.90;56.40
42159;DHT22;27822;44.430;10.790;2022-08-01T08:30:17;30.00;56.70
42159;DHT22;27822;44.430;10.790;2022-08-01T08:32:43;30.10;56.90
42159;DHT22;27822;44.430;10.790;2022-08-01T08:35:10;30.10;55.90
42159;DHT22;27822;44.430;10.790;2022-08-01T08:37:36;30.10;56.70
42159;DHT22;27822;44.430;10.790;2022-08-01T08:40:03;30.00;56.10
42159;DHT22;27822;44.430;10.790;2022-08-01T08:42:29;30.10;56.50
42159;DHT22;27822;44.430;10.790;2022-08-01T08:44:55;30.10;56.10
42159;DHT22;27822;44.430;10.790;2022-08-01T08:47:22;30.00;57.20
42159;DHT22;27822;44.430;10.790;2022-08-01T08:49:52;30.10;57.10
42159;DHT22;27822;44.430;10.790;2022-08-01T08:52:19;30.10;56.70
42159;DHT22;27822;44.430;10.790;2022-08-01T08:54:47;30.10;57.00
42159;DHT22;27822;44.430;10.790;2022-08-01T08:57:14;30.10;57.80
42159;DHT22;27822;44.430;10.790;2022-08-01T08:59:42;30.20;57.10
42159;DHT22;27822;44.430;10.790;2022-08-01T09:02:09;30.10;56.80
42159;DHT22;27822;44.430;10.790;2022-08-01T09:04:36;30.10;57.10
42159;DHT22;27822;44.430;10.790;2022-08-01T09:07:04;30.20;56.90
42159;DHT22;27822;44.430;10.790;2022-08-01T09:09:29;30.30;57.10
42159;DHT22;27822;44.430;10.790;2022-08-01T09:11:55;30.40;56.40
42159;DHT22;27822;44.430;10.790;2022-08-01T09:14:22;30.40;56.20
42159;DHT22;27822;44.430;10.790;2022-08-01T09:17:03;30.40;56.60
42159;DHT22;27822;44.430;10.790;2022-08-01T09:19:40;30.40;56.30
42159;DHT22;27822;44.430;10.790;2022-08-01T09:22:08;30.30;56.30
42159;DHT22;27822;44.430;10.790;2022-08-01T09:24:35;30.20;57.20
42159;DHT22;27822;44.430;10.790;2022-08-01T09:27:18;30.40;56.30
42159;DHT22;27822;44.430;10.790;2022-08-01T09:29:44;30.40;56.10
42159;DHT22;27822;44.430;10.790;2022-08-01T09:32:10;30.40;56.30
42159;DHT22;27822;44.430;10.790;2022-08-01T09:34:36;30.30;55.80
42159;DHT22;27822;44.430;10.790;2022-08-01T09:37:03;30.30;56.30
42159;DHT22;27822;44.430;10.790;2022-08-01T09:39:35;30.40;56.40
42159;DHT22;27822;44.430;10.790;2022-08-01T09:42:25;30.40;56.10
42159;DHT22;27822;44.430;10.790;2022-08-01T09:44:51;30.40;56.50
42159;DHT22;27822;44.430;10.790;2022-08-01T09:47:19;30.50;56.40
42159;DHT22;27822;44.430;10.790;2022-08-01T09:49:56;30.50;56.20
42159;DHT22;27822;44.430;10.790;2022-08-01T09:52:26;30.60;56.40
42159;DHT22;27822;44.430;10.790;2022-08-01T09:54:57;30.70;55.20
42159;DHT22;27822;44.430;10.790;2022-08-01T09:57:24;30.70;55.40
42159;DHT22;27822;44.430;10.790;2022-08-01T09:59:51;30.60;55.80
42159;DHT22;27822;44.430;10.790;2022-08-01T10:02:34;30.60;55.90
42159;DHT22;27822;44.430;10.790;2022-08-01T10:05:06;30.50;55.70
42159;DHT22;27822;44.430;10.790;2022-08-01T10:07:32;30.50;55.10
42159;DHT22;27822;44.430;10.790;2022-08-01T10:10:11;30.50;56.10
